sensor_id;sensor_type;location;lat;lon;timestamp;P1;durP1;ratioP1;P2;durP2;ratioP2
23142;SDS011;11740;51.168;4.112;2023-07-16T00:00:15;5.80;;;1.95;;
23142;SDS011;11740;51.168;4.112;2023-07-16T00:02:44;7.70;;;2.55;;
23142;SDS011;11740;51.168;4.112;2023-07-16T00:05:11;9.90;;;2.17;;
23142;SDS011;11740;51.168;4.112;2023-07-16T00:07:39;7.28;;;2.33;;
23142;SDS011;11740;51.168;4.112;2023-07-16T00:10:06;7.38;;;2.42;;
23142;SDS011;11740;51.168;4.112;2023-07-16T00:12:33;6.53;;;2.33;;
23142;SDS011;11740;51.168;4.112;2023-07-16T00:15:00;10.25;;;2.72;;
23142;SDS011;11740;51.168;4.112;2023-07-16T00:17:27;5.65;;;2.35;;
23142;SDS011;11740;51.168;4.112;2023-07-16T00:19:54;7.40;;;2.60;;
23142;SDS011;11740;51.168;4.112;2023-07-16T00:22:21;11.38;;;2.50;;
23142;SDS011;11740;51.168;4.112;2023-07-16T00:24:48;12.18;;;2.80;;
23142;SDS011;11740;51.168;4.112;2023-07-16T00:27:15;8.35;;;2.58;;
23142;SDS011;11740;51.168;4.112;2023-07-16T00:29:42;6.38;;;2.40;;
23142;SDS011;11740;51.168;4.112;2023-07-16T00:32:09;8.43;;;2.63;;
23142;SDS011;11740;51.168;4.112;2023-07-16T00:34:36;8.70;;;2.08;;
23142;SDS011;11740;51.168;4.112;2023-07-16T00:37:03;7.90;;;2.35;;
23142;SDS011;11740;51.168;4.112;2023-07-16T00:39:30;8.27;;;2.55;;
23142;SDS011;11740;51.168;4.112;2023-07-16T00:41:57;9.02;;;2.67;;
23142;SDS011;11740;51.168;4.112;2023-07-16T00:44:24;8.73;;;2.55;;
23142;SDS011;11740;51.168;4.112;2023-07-16T00:46:51;10.07;;;2.80;;
23142;SDS011;11740;51.168;4.112;2023-07-16T00:49:18;8.15;;;2.60;;
23142;SDS011;11740;51.168;4.112;2023-07-16T00:51:45;7.80;;;2.60;;
23142;SDS011;11740;51.168;4.112;2023-07-16T00:54:12;10.75;;;2.80;;
23142;SDS011;11740;51.168;4.112;2023-07-16T00:56:40;9.98;;;2.65;;
23142;SDS011;11740;51.168;4.112;2023-07-16T00:59:07;10.73;;;2.97;;
23142;SDS011;11740;51.168;4.112;2023-07-16T01:01:35;5.93;;;2.50;;
23142;SDS011;11740;51.168;4.112;2023-07-16T01:04:03;10.30;;;3.10;;
23142;SDS011;11740;51.168;4.112;2023-07-16T01:06:33;11.57;;;2.60;;
23142;SDS011;11740;51.168;4.112;2023-07-16T01:09:09;8.63;;;2.77;;
23142;SDS011;11740;51.168;4.112;2023-07-16T01:11:43;9.93;;;2.80;;
23142;SDS011;11740;51.168;4.112;2023-07-16T01:14:16;7.63;;;2.60;;
23142;SDS011;11740;51.168;4.112;2023-07-16T01:16:44;9.93;;;2.92;;
23142;SDS011;11740;51.168;4.112;2023-07-16T01:19:11;9.90;;;2.78;;
23142;SDS011;11740;51.168;4.112;2023-07-16T01:30:17;7.45;;;2.47;;
23142;SDS011;11740;51.168;4.112;2023-07-16T01:32:46;7.55;;;2.90;;
23142;SDS011;11740;51.168;4.112;2023-07-16T01:35:14;8.02;;;2.78;;
23142;SDS011;11740;51.168;4.112;2023-07-16T01:37:42;7.68;;;2.65;;
23142;SDS011;11740;51.168;4.112;2023-07-16T01:40:09;9.18;;;2.60;;
23142;SDS011;11740;51.168;4.112;2023-07-16T01:42:37;6.20;;;2.13;;
23142;SDS011;11740;51.168;4.112;2023-07-16T01:45:04;8.43;;;2.20;;
23142;SDS011;11740;51.168;4.112;2023-07-16T01:50:25;9.50;;;3.53;;
23142;SDS011;11740;51.168;4.112;2023-07-16T01:52:53;7.53;;;3.28;;
23142;SDS011;11740;51.168;4.112;2023-07-16T01:55:20;9.40;;;3.05;;
23142;SDS011;11740;51.168;4.112;2023-07-16T01:57:47;6.18;;;3.28;;
23142;SDS011;11740;51.168;4.112;2023-07-16T02:00:13;8.50;;;3.38;;
23142;SDS011;11740;51.168;4.112;2023-07-16T02:02:41;8.75;;;3.53;;
23142;SDS011;11740;51.168;4.112;2023-07-16T02:05:08;5.55;;;2.80;;
23142;SDS011;11740;51.168;4.112;2023-07-16T02:07:36;7.70;;;2.80;;
23142;SDS011;11740;51.168;4.112;2023-07-16T02:10:03;7.72;;;2.72;;
23142;SDS011;11740;51.168;4.112;2023-07-16T02:12:30;8.57;;;3.17;;
23142;SDS011;11740;51.168;4.112;2023-07-16T02:14:57;9.07;;;3.42;;
23142;SDS011;11740;51.168;4.112;2023-07-16T02:17:24;6.35;;;2.70;;
23142;SDS011;11740;51.168;4.112;2023-07-16T02:19:51;6.22;;;2.78;;
23142;SDS011;11740;51.168;4.112;2023-07-16T02:22:18;8.23;;;2.95;;
23142;SDS011;11740;51.168;4.112;2023-07-16T02:24:46;5.28;;;2.90;;
23142;SDS011;11740;51.168;4.112;2023-07-16T02:27:13;9.18;;;3.38;;
23142;SDS011;11740;51.168;4.112;2023-07-16T02:29:40;6.82;;;2.85;;
23142;SDS011;11740;51.168;4.112;2023-07-16T02:32:07;8.68;;;3.40;;
23142;SDS011;11740;51.168;4.112;2023-07-16T02:34:34;9.10;;;3.53;;
23142;SDS011;11740;51.168;4.112;2023-07-16T02:37:01;6.38;;;3.53;;
23142;SDS011;11740;51.168;4.112;2023-07-16T02:39:28;8.85;;;3.63;;
23142;SDS011;11740;51.168;4.112;2023-07-16T02:41:55;9.07;;;3.60;;
23142;SDS011;11740;51.168;4.112;2023-07-16T02:44:22;8.48;;;4.13;;
23142;SDS011;11740;51.168;4.112;2023-07-16T02:46:48;7.22;;;3.60;;
23142;SDS011;11740;51.168;4.112;2023-07-16T02:49:15;9.40;;;4.00;;
23142;SDS011;11740;51.168;4.112;2023-07-16T02:51:42;9.55;;;3.90;;
23142;SDS011;11740;51.168;4.112;2023-07-16T02:54:09;10.60;;;4.45;;
23142;SDS011;11740;51.168;4.112;2023-07-16T02:56:36;12.43;;;4.15;;
23142;SDS011;11740;51.168;4.112;2023-07-16T02:59:03;9.77;;;3.78;;
23142;SDS011;11740;51.168;4.112;2023-07-16T03:01:30;9.05;;;3.83;;
23142;SDS011;11740;51.168;4.112;2023-07-16T03:03:57;8.85;;;4.18;;
23142;SDS011;11740;51.168;4.112;2023-07-16T03:06:24;12.02;;;4.43;;
23142;SDS011;11740;51.168;4.112;2023-07-16T03:08:51;8.82;;;4.20;;
23142;SDS011;11740;51.168;4.112;2023-07-16T03:11:18;11.68;;;4.22;;
23142;SDS011;11740;51.168;4.112;2023-07-16T03:13:45;12.52;;;4.15;;
23142;SDS011;11740;51.168;4.112;2023-07-16T03:16:12;9.77;;;4.25;;
23142;SDS011;11740;51.168;4.112;2023-07-16T03:18:39;6.22;;;3.72;;
23142;SDS011;11740;51.168;4.112;2023-07-16T03:21:06;7.90;;;3.88;;
23142;SDS011;11740;51.168;4.112;2023-07-16T03:23:33;9.88;;;3.88;;
23142;SDS011;11740;51.168;4.112;2023-07-16T03:26:00;7.88;;;4.10;;
23142;SDS011;11740;51.168;4.112;2023-07-16T03:28:27;10.68;;;3.75;;
23142;SDS011;11740;51.168;4.112;2023-07-16T03:30:54;11.02;;;4.20;;
23142;SDS011;11740;51.168;4.112;2023-07-16T03:33:21;10.35;;;4.32;;
23142;SDS011;11740;51.168;4.112;2023-07-16T03:35:48;7.10;;;3.97;;
23142;SDS011;11740;51.168;4.112;2023-07-16T03:38:16;8.98;;;4.03;;
23142;SDS011;11740;51.168;4.112;2023-07-16T03:40:46;9.48;;;4.13;;
23142;SDS011;11740;51.168;4.112;2023-07-16T03:43:15;10.73;;;4.55;;
23142;SDS011;11740;51.168;4.112;2023-07-16T03:45:43;9.43;;;4.18;;
23142;SDS011;11740;51.168;4.112;2023-07-16T03:48:10;8.93;;;4.25;;
23142;SDS011;11740;51.168;4.112;2023-07-16T03:50:37;8.27;;;4.13;;
23142;SDS011;11740;51.168;4.112;2023-07-16T03:53:04;10.13;;;4.57;;
23142;SDS011;11740;51.168;4.112;2023-07-16T03:55:31;9.00;;;4.90;;
23142;SDS011;11740;51.168;4.112;2023-07-16T03:57:58;11.77;;;4.43;;
23142;SDS011;11740;51.168;4.112;2023-07-16T04:00:25;10.40;;;4.43;;
23142;SDS011;11740;51.168;4.112;2023-07-16T04:02:52;9.65;;;4.38;;
23142;SDS011;11740;51.168;4.112;2023-07-16T04:05:19;8.20;;;4.65;;
23142;SDS011;11740;51.168;4.112;2023-07-16T04:07:49;9.07;;;4.88;;
23142;SDS011;11740;51.168;4.112;2023-07-16T04:10:17;10.32;;;4.90;;
23142;SDS011;11740;51.168;4.112;2023-07-16T04:12:44;8.20;;;4.78;;
23142;SDS011;11740;51.168;4.112;2023-07-16T04:15:11;12.90;;;5.40;;
23142;SDS011;11740;51.168;4.112;2023-07-16T04:17:38;11.45;;;5.13;;
23142;SDS011;11740;51.168;4.112;2023-07-16T04:20:05;15.55;;;5.20;;
23142;SDS011;11740;51.168;4.112;2023-07-16T04:22:33;11.70;;;4.88;;
23142;SDS011;11740;51.168;4.112;2023-07-16T04:25:01;8.05;;;5.03;;
23142;SDS011;11740;51.168;4.112;2023-07-16T04:27:30;12.35;;;5.50;;
23142;SDS011;11740;51.168;4.112;2023-07-16T04:29:57;8.55;;;4.68;;
23142;SDS011;11740;51.168;4.112;2023-07-16T04:32:24;13.57;;;5.20;;
23142;SDS011;11740;51.168;4.112;2023-07-16T04:34:51;12.88;;;5.45;;
23142;SDS011;11740;51.168;4.112;2023-07-16T04:37:18;11.50;;;5.75;;
23142;SDS011;11740;51.168;4.112;2023-07-16T04:39:45;8.82;;;5.03;;
23142;SDS011;11740;51.168;4.112;2023-07-16T04:42:12;11.13;;;5.03;;
23142;SDS011;11740;51.168;4.112;2023-07-16T04:44:39;8.77;;;4.80;;
23142;SDS011;11740;51.168;4.112;2023-07-16T04:47:06;11.30;;;5.05;;
23142;SDS011;11740;51.168;4.112;2023-07-16T04:49:34;11.95;;;4.93;;
23142;SDS011;11740;51.168;4.112;2023-07-16T04:52:02;10.23;;;5.30;;
23142;SDS011;11740;51.168;4.112;2023-07-16T04:54:34;11.65;;;5.32;;
23142;SDS011;11740;51.168;4.112;2023-07-16T04:59:35;14.38;;;5.03;;
23142;SDS011;11740;51.168;4.112;2023-07-16T05:02:04;14.15;;;5.40;;
23142;SDS011;11740;51.168;4.112;2023-07-16T05:04:33;12.90;;;5.88;;
23142;SDS011;11740;51.168;4.112;2023-07-16T05:07:01;14.38;;;5.68;;
23142;SDS011;11740;51.168;4.112;2023-07-16T05:09:29;13.45;;;6.00;;
23142;SDS011;11740;51.168;4.112;2023-07-16T05:11:56;11.25;;;5.57;;
23142;SDS011;11740;51.168;4.112;2023-07-16T05:14:26;10.63;;;5.38;;
23142;SDS011;11740;51.168;4.112;2023-07-16T05:16:55;14.07;;;6.05;;
23142;SDS011;11740;51.168;4.112;2023-07-16T05:19:22;15.13;;;6.00;;
23142;SDS011;11740;51.168;4.112;2023-07-16T05:21:49;11.88;;;5.53;;
23142;SDS011;11740;51.168;4.112;2023-07-16T05:24:16;13.63;;;5.93;;
23142;SDS011;11740;51.168;4.112;2023-07-16T05:26:43;14.55;;;5.75;;
23142;SDS011;11740;51.168;4.112;2023-07-16T05:29:11;12.10;;;6.35;;
23142;SDS011;11740;51.168;4.112;2023-07-16T05:31:37;13.88;;;5.72;;
23142;SDS011;11740;51.168;4.112;2023-07-16T05:34:04;14.38;;;6.35;;
23142;SDS011;11740;51.168;4.112;2023-07-16T05:36:31;14.13;;;5.82;;
23142;SDS011;11740;51.168;4.112;2023-07-16T05:38:58;10.35;;;5.30;;
23142;SDS011;11740;51.168;4.112;2023-07-16T05:41:25;15.73;;;6.20;;
23142;SDS011;11740;51.168;4.112;2023-07-16T05:43:52;16.08;;;6.68;;
23142;SDS011;11740;51.168;4.112;2023-07-16T05:46:19;14.32;;;6.45;;
23142;SDS011;11740;51.168;4.112;2023-07-16T05:48:46;11.98;;;5.70;;
23142;SDS011;11740;51.168;4.112;2023-07-16T05:51:13;13.75;;;5.95;;
23142;SDS011;11740;51.168;4.112;2023-07-16T05:53:40;12.43;;;6.65;;
23142;SDS011;11740;51.168;4.112;2023-07-16T05:56:07;15.18;;;6.55;;
23142;SDS011;11740;51.168;4.112;2023-07-16T05:58:34;11.40;;;6.43;;
23142;SDS011;11740;51.168;4.112;2023-07-16T06:01:01;14.60;;;6.63;;
23142;SDS011;11740;51.168;4.112;2023-07-16T06:03:28;13.13;;;7.00;;
23142;SDS011;11740;51.168;4.112;2023-07-16T06:05:55;14.50;;;6.40;;
23142;SDS011;11740;51.168;4.112;2023-07-16T06:08:22;13.38;;;6.68;;
23142;SDS011;11740;51.168;4.112;2023-07-16T06:10:51;12.02;;;6.22;;
23142;SDS011;11740;51.168;4.112;2023-07-16T06:13:18;13.15;;;6.07;;
23142;SDS011;11740;51.168;4.112;2023-07-16T06:15:46;14.38;;;6.70;;
23142;SDS011;11740;51.168;4.112;2023-07-16T06:18:13;12.57;;;6.20;;
23142;SDS011;11740;51.168;4.112;2023-07-16T06:20:46;17.33;;;6.72;;
23142;SDS011;11740;51.168;4.112;2023-07-16T06:23:13;15.60;;;6.57;;
23142;SDS011;11740;51.168;4.112;2023-07-16T06:25:42;12.73;;;6.07;;
23142;SDS011;11740;51.168;4.112;2023-07-16T06:28:14;20.45;;;6.38;;
23142;SDS011;11740;51.168;4.112;2023-07-16T06:30:42;12.23;;;5.90;;
23142;SDS011;11740;51.168;4.112;2023-07-16T06:33:09;13.88;;;6.00;;
23142;SDS011;11740;51.168;4.112;2023-07-16T06:35:36;12.20;;;6.03;;
23142;SDS011;11740;51.168;4.112;2023-07-16T06:38:03;12.10;;;6.15;;
23142;SDS011;11740;51.168;4.112;2023-07-16T06:40:30;14.85;;;5.78;;
23142;SDS011;11740;51.168;4.112;2023-07-16T06:42:57;13.55;;;5.97;;
23142;SDS011;11740;51.168;4.112;2023-07-16T06:45:25;9.98;;;5.93;;
23142;SDS011;11740;51.168;4.112;2023-07-16T06:47:52;14.60;;;6.25;;
23142;SDS011;11740;51.168;4.112;2023-07-16T06:50:18;11.45;;;5.97;;
23142;SDS011;11740;51.168;4.112;2023-07-16T06:52:45;11.35;;;5.85;;
23142;SDS011;11740;51.168;4.112;2023-07-16T06:55:12;14.55;;;6.50;;
23142;SDS011;11740;51.168;4.112;2023-07-16T06:57:39;13.27;;;6.55;;
23142;SDS011;11740;51.168;4.112;2023-07-16T07:00:06;13.30;;;6.57;;
23142;SDS011;11740;51.168;4.112;2023-07-16T07:02:37;13.38;;;6.53;;
23142;SDS011;11740;51.168;4.112;2023-07-16T07:05:04;13.73;;;6.43;;
23142;SDS011;11740;51.168;4.112;2023-07-16T07:07:31;15.80;;;6.60;;
23142;SDS011;11740;51.168;4.112;2023-07-16T07:09:58;11.93;;;6.40;;
23142;SDS011;11740;51.168;4.112;2023-07-16T07:12:26;14.93;;;7.00;;
23142;SDS011;11740;51.168;4.112;2023-07-16T07:14:53;13.95;;;6.97;;
23142;SDS011;11740;51.168;4.112;2023-07-16T07:17:20;12.80;;;6.55;;
23142;SDS011;11740;51.168;4.112;2023-07-16T07:19:47;13.40;;;6.70;;
23142;SDS011;11740;51.168;4.112;2023-07-16T07:22:14;11.27;;;6.15;;
23142;SDS011;11740;51.168;4.112;2023-07-16T07:24:41;16.63;;;6.82;;
23142;SDS011;11740;51.168;4.112;2023-07-16T07:27:08;11.32;;;6.10;;
23142;SDS011;11740;51.168;4.112;2023-07-16T07:29:35;13.90;;;6.32;;
23142;SDS011;11740;51.168;4.112;2023-07-16T07:32:02;14.65;;;6.60;;
23142;SDS011;11740;51.168;4.112;2023-07-16T07:34:29;17.13;;;6.45;;
23142;SDS011;11740;51.168;4.112;2023-07-16T07:36:56;13.05;;;6.22;;
23142;SDS011;11740;51.168;4.112;2023-07-16T07:39:23;14.55;;;6.35;;
23142;SDS011;11740;51.168;4.112;2023-07-16T07:41:50;16.80;;;6.78;;
23142;SDS011;11740;51.168;4.112;2023-07-16T07:44:17;22.08;;;6.82;;
23142;SDS011;11740;51.168;4.112;2023-07-16T07:46:44;13.13;;;6.30;;
23142;SDS011;11740;51.168;4.112;2023-07-16T07:49:11;17.15;;;6.22;;
23142;SDS011;11740;51.168;4.112;2023-07-16T07:51:38;14.43;;;6.18;;
23142;SDS011;11740;51.168;4.112;2023-07-16T07:54:05;13.48;;;6.35;;
23142;SDS011;11740;51.168;4.112;2023-07-16T07:56:32;13.32;;;5.90;;
23142;SDS011;11740;51.168;4.112;2023-07-16T07:58:59;10.25;;;5.60;;
23142;SDS011;11740;51.168;4.112;2023-07-16T08:01:26;14.63;;;6.07;;
23142;SDS011;11740;51.168;4.112;2023-07-16T08:03:54;15.13;;;6.57;;
23142;SDS011;11740;51.168;4.112;2023-07-16T08:06:21;12.45;;;5.90;;
23142;SDS011;11740;51.168;4.112;2023-07-16T08:08:48;17.48;;;6.40;;
23142;SDS011;11740;51.168;4.112;2023-07-16T08:11:15;13.05;;;5.90;;
23142;SDS011;11740;51.168;4.112;2023-07-16T08:13:42;14.38;;;6.43;;
23142;SDS011;11740;51.168;4.112;2023-07-16T08:16:09;13.38;;;6.25;;
23142;SDS011;11740;51.168;4.112;2023-07-16T08:18:36;13.18;;;6.20;;
23142;SDS011;11740;51.168;4.112;2023-07-16T08:21:03;15.50;;;5.78;;
23142;SDS011;11740;51.168;4.112;2023-07-16T08:23:30;13.40;;;6.55;;
23142;SDS011;11740;51.168;4.112;2023-07-16T08:25:57;15.52;;;6.03;;
23142;SDS011;11740;51.168;4.112;2023-07-16T08:28:24;18.95;;;6.60;;
23142;SDS011;11740;51.168;4.112;2023-07-16T08:30:51;15.98;;;5.60;;
23142;SDS011;11740;51.168;4.112;2023-07-16T08:33:18;13.80;;;6.05;;
23142;SDS011;11740;51.168;4.112;2023-07-16T08:35:45;16.00;;;6.90;;
23142;SDS011;11740;51.168;4.112;2023-07-16T08:38:12;11.38;;;5.93;;
23142;SDS011;11740;51.168;4.112;2023-07-16T08:40:39;12.02;;;5.43;;
23142;SDS011;11740;51.168;4.112;2023-07-16T08:43:06;13.20;;;5.93;;
23142;SDS011;11740;51.168;4.112;2023-07-16T08:45:38;15.48;;;5.82;;
23142;SDS011;11740;51.168;4.112;2023-07-16T08:48:07;12.60;;;5.80;;
23142;SDS011;11740;51.168;4.112;2023-07-16T08:50:35;14.05;;;5.75;;
23142;SDS011;11740;51.168;4.112;2023-07-16T08:53:06;12.13;;;5.60;;
23142;SDS011;11740;51.168;4.112;2023-07-16T08:55:34;10.57;;;5.30;;
23142;SDS011;11740;51.168;4.112;2023-07-16T08:58:03;9.02;;;5.20;;
23142;SDS011;11740;51.168;4.112;2023-07-16T09:00:31;11.02;;;5.25;;
23142;SDS011;11740;51.168;4.112;2023-07-16T09:02:58;19.00;;;10.18;;
23142;SDS011;11740;51.168;4.112;2023-07-16T09:05:25;11.88;;;6.07;;
23142;SDS011;11740;51.168;4.112;2023-07-16T09:08:04;13.55;;;5.60;;
23142;SDS011;11740;51.168;4.112;2023-07-16T09:10:32;12.27;;;5.90;;
23142;SDS011;11740;51.168;4.112;2023-07-16T09:13:00;12.27;;;5.82;;
23142;SDS011;11740;51.168;4.112;2023-07-16T09:15:28;15.52;;;6.72;;
23142;SDS011;11740;51.168;4.112;2023-07-16T09:17:56;12.23;;;6.22;;
23142;SDS011;11740;51.168;4.112;2023-07-16T09:20:23;12.10;;;5.47;;
23142;SDS011;11740;51.168;4.112;2023-07-16T09:22:53;10.55;;;5.68;;
23142;SDS011;11740;51.168;4.112;2023-07-16T09:25:30;12.75;;;5.45;;
23142;SDS011;11740;51.168;4.112;2023-07-16T09:28:00;12.77;;;4.95;;
23142;SDS011;11740;51.168;4.112;2023-07-16T09:30:33;10.48;;;5.03;;
23142;SDS011;11740;51.168;4.112;2023-07-16T09:36:00;14.10;;;5.32;;
23142;SDS011;11740;51.168;4.112;2023-07-16T09:38:29;10.57;;;5.55;;
23142;SDS011;11740;51.168;4.112;2023-07-16T09:40:58;11.52;;;5.10;;
23142;SDS011;11740;51.168;4.112;2023-07-16T09:43:26;13.50;;;5.85;;
23142;SDS011;11740;51.168;4.112;2023-07-16T09:45:53;11.15;;;5.25;;
23142;SDS011;11740;51.168;4.112;2023-07-16T09:48:20;11.75;;;5.85;;
23142;SDS011;11740;51.168;4.112;2023-07-16T09:50:50;14.77;;;8.48;;
23142;SDS011;11740;51.168;4.112;2023-07-16T09:53:20;17.98;;;9.50;;
23142;SDS011;11740;51.168;4.112;2023-07-16T09:55:50;13.38;;;5.85;;
23142;SDS011;11740;51.168;4.112;2023-07-16T09:58:19;12.60;;;5.72;;
23142;SDS011;11740;51.168;4.112;2023-07-16T10:00:49;13.20;;;5.60;;
23142;SDS011;11740;51.168;4.112;2023-07-16T10:03:17;12.07;;;5.40;;
23142;SDS011;11740;51.168;4.112;2023-07-16T10:05:44;11.00;;;5.43;;
23142;SDS011;11740;51.168;4.112;2023-07-16T10:08:19;12.10;;;5.40;;
23142;SDS011;11740;51.168;4.112;2023-07-16T10:10:47;8.15;;;5.05;;
23142;SDS011;11740;51.168;4.112;2023-07-16T10:13:21;18.13;;;10.52;;
23142;SDS011;11740;51.168;4.112;2023-07-16T10:15:54;13.70;;;4.72;;
23142;SDS011;11740;51.168;4.112;2023-07-16T10:18:25;8.48;;;4.18;;
23142;SDS011;11740;51.168;4.112;2023-07-16T10:21:02;8.00;;;4.10;;
23142;SDS011;11740;51.168;4.112;2023-07-16T10:23:38;7.68;;;4.35;;
23142;SDS011;11740;51.168;4.112;2023-07-16T10:26:11;7.03;;;3.85;;
23142;SDS011;11740;51.168;4.112;2023-07-16T10:28:45;12.23;;;6.50;;
23142;SDS011;11740;51.168;4.112;2023-07-16T10:31:46;9.00;;;3.78;;
23142;SDS011;11740;51.168;4.112;2023-07-16T10:34:06;7.68;;;3.35;;
23142;SDS011;11740;51.168;4.112;2023-07-16T10:36:40;4.97;;;2.60;;
23142;SDS011;11740;51.168;4.112;2023-07-16T10:39:07;7.28;;;2.80;;
23142;SDS011;11740;51.168;4.112;2023-07-16T10:41:34;5.35;;;2.53;;
23142;SDS011;11740;51.168;4.112;2023-07-16T10:44:02;4.60;;;2.50;;
23142;SDS011;11740;51.168;4.112;2023-07-16T10:46:30;4.05;;;2.60;;
23142;SDS011;11740;51.168;4.112;2023-07-16T10:48:59;8.25;;;3.00;;
23142;SDS011;11740;51.168;4.112;2023-07-16T10:51:27;5.13;;;2.45;;
23142;SDS011;11740;51.168;4.112;2023-07-16T10:53:55;6.20;;;2.90;;
23142;SDS011;11740;51.168;4.112;2023-07-16T10:56:23;4.53;;;2.50;;
23142;SDS011;11740;51.168;4.112;2023-07-16T10:58:51;3.20;;;2.20;;
23142;SDS011;11740;51.168;4.112;2023-07-16T11:01:18;8.75;;;4.00;;
23142;SDS011;11740;51.168;4.112;2023-07-16T11:03:46;5.90;;;2.60;;
23142;SDS011;11740;51.168;4.112;2023-07-16T11:06:13;7.65;;;2.58;;
23142;SDS011;11740;51.168;4.112;2023-07-16T11:08:42;6.18;;;2.10;;
23142;SDS011;11740;51.168;4.112;2023-07-16T11:11:09;4.63;;;2.30;;
23142;SDS011;11740;51.168;4.112;2023-07-16T11:13:36;7.88;;;2.38;;
23142;SDS011;11740;51.168;4.112;2023-07-16T11:16:06;8.75;;;2.33;;
23142;SDS011;11740;51.168;4.112;2023-07-16T11:18:34;6.35;;;2.42;;
23142;SDS011;11740;51.168;4.112;2023-07-16T11:21:02;5.10;;;2.05;;
23142;SDS011;11740;51.168;4.112;2023-07-16T11:23:33;5.45;;;2.30;;
23142;SDS011;11740;51.168;4.112;2023-07-16T11:26:02;6.18;;;2.38;;
23142;SDS011;11740;51.168;4.112;2023-07-16T11:28:37;4.75;;;2.40;;
23142;SDS011;11740;51.168;4.112;2023-07-16T11:31:14;5.30;;;2.35;;
23142;SDS011;11740;51.168;4.112;2023-07-16T11:33:46;5.53;;;2.03;;
23142;SDS011;11740;51.168;4.112;2023-07-16T11:36:13;4.35;;;2.05;;
23142;SDS011;11740;51.168;4.112;2023-07-16T11:38:43;5.13;;;2.20;;
23142;SDS011;11740;51.168;4.112;2023-07-16T11:41:10;3.38;;;1.77;;
23142;SDS011;11740;51.168;4.112;2023-07-16T11:43:39;4.68;;;2.00;;
23142;SDS011;11740;51.168;4.112;2023-07-16T11:46:14;4.70;;;2.05;;
23142;SDS011;11740;51.168;4.112;2023-07-16T11:48:44;6.25;;;1.92;;
23142;SDS011;11740;51.168;4.112;2023-07-16T11:51:10;5.72;;;2.13;;
23142;SDS011;11740;51.168;4.112;2023-07-16T11:53:37;4.93;;;2.15;;
23142;SDS011;11740;51.168;4.112;2023-07-16T11:56:05;7.45;;;2.25;;
23142;SDS011;11740;51.168;4.112;2023-07-16T11:58:33;7.22;;;2.53;;
23142;SDS011;11740;51.168;4.112;2023-07-16T12:01:00;5.78;;;2.08;;
23142;SDS011;11740;51.168;4.112;2023-07-16T12:03:27;4.78;;;2.25;;
23142;SDS011;11740;51.168;4.112;2023-07-16T12:05:54;5.95;;;2.75;;
23142;SDS011;11740;51.168;4.112;2023-07-16T12:08:21;4.97;;;2.40;;
23142;SDS011;11740;51.168;4.112;2023-07-16T12:10:48;7.22;;;2.90;;
23142;SDS011;11740;51.168;4.112;2023-07-16T12:13:15;6.18;;;2.58;;
23142;SDS011;11740;51.168;4.112;2023-07-16T12:15:42;5.15;;;2.67;;
23142;SDS011;11740;51.168;4.112;2023-07-16T12:18:09;8.40;;;3.47;;
23142;SDS011;11740;51.168;4.112;2023-07-16T12:20:36;5.82;;;2.70;;
23142;SDS011;11740;51.168;4.112;2023-07-16T12:23:03;7.50;;;2.75;;
23142;SDS011;11740;51.168;4.112;2023-07-16T12:25:31;5.75;;;3.47;;
23142;SDS011;11740;51.168;4.112;2023-07-16T12:27:57;6.40;;;2.75;;
23142;SDS011;11740;51.168;4.112;2023-07-16T12:30:28;6.63;;;2.88;;
23142;SDS011;11740;51.168;4.112;2023-07-16T12:32:55;7.13;;;2.92;;
23142;SDS011;11740;51.168;4.112;2023-07-16T12:35:22;7.38;;;3.40;;
23142;SDS011;11740;51.168;4.112;2023-07-16T12:37:49;4.35;;;2.72;;
23142;SDS011;11740;51.168;4.112;2023-07-16T12:40:16;4.43;;;2.95;;
23142;SDS011;11740;51.168;4.112;2023-07-16T12:42:43;6.78;;;3.10;;
23142;SDS011;11740;51.168;4.112;2023-07-16T12:45:10;7.53;;;3.83;;
23142;SDS011;11740;51.168;4.112;2023-07-16T12:47:37;6.32;;;2.47;;
23142;SDS011;11740;51.168;4.112;2023-07-16T12:50:05;7.63;;;3.38;;
23142;SDS011;11740;51.168;4.112;2023-07-16T12:52:33;8.10;;;4.72;;
23142;SDS011;11740;51.168;4.112;2023-07-16T12:55:00;5.82;;;2.80;;
23142;SDS011;11740;51.168;4.112;2023-07-16T12:57:27;6.63;;;2.67;;
23142;SDS011;11740;51.168;4.112;2023-07-16T12:59:54;6.65;;;2.78;;
23142;SDS011;11740;51.168;4.112;2023-07-16T13:02:21;5.78;;;2.58;;
23142;SDS011;11740;51.168;4.112;2023-07-16T13:04:48;4.35;;;2.55;;
23142;SDS011;11740;51.168;4.112;2023-07-16T13:07:15;3.63;;;2.33;;
23142;SDS011;11740;51.168;4.112;2023-07-16T13:09:42;5.18;;;2.67;;
23142;SDS011;11740;51.168;4.112;2023-07-16T13:12:09;5.30;;;2.75;;
23142;SDS011;11740;51.168;4.112;2023-07-16T13:14:36;6.88;;;2.60;;
23142;SDS011;11740;51.168;4.112;2023-07-16T13:17:03;5.93;;;2.78;;
23142;SDS011;11740;51.168;4.112;2023-07-16T13:19:31;5.45;;;2.70;;
23142;SDS011;11740;51.168;4.112;2023-07-16T13:21:58;8.07;;;2.75;;
23142;SDS011;11740;51.168;4.112;2023-07-16T13:24:25;8.25;;;2.70;;
23142;SDS011;11740;51.168;4.112;2023-07-16T13:26:52;6.30;;;2.78;;
23142;SDS011;11740;51.168;4.112;2023-07-16T13:29:19;4.65;;;2.17;;
23142;SDS011;11740;51.168;4.112;2023-07-16T13:31:46;5.15;;;2.42;;
23142;SDS011;11740;51.168;4.112;2023-07-16T13:34:13;7.72;;;2.63;;
23142;SDS011;11740;51.168;4.112;2023-07-16T13:36:40;6.65;;;2.83;;
23142;SDS011;11740;51.168;4.112;2023-07-16T13:39:07;8.27;;;2.85;;
23142;SDS011;11740;51.168;4.112;2023-07-16T13:41:34;6.90;;;3.22;;
23142;SDS011;11740;51.168;4.112;2023-07-16T13:44:02;6.82;;;3.30;;
23142;SDS011;11740;51.168;4.112;2023-07-16T13:46:30;8.32;;;3.20;;
23142;SDS011;11740;51.168;4.112;2023-07-16T13:48:57;7.75;;;3.08;;
23142;SDS011;11740;51.168;4.112;2023-07-16T13:51:26;6.43;;;2.72;;
23142;SDS011;11740;51.168;4.112;2023-07-16T13:53:53;5.75;;;2.65;;
23142;SDS011;11740;51.168;4.112;2023-07-16T13:56:20;4.15;;;2.33;;
23142;SDS011;11740;51.168;4.112;2023-07-16T13:58:47;2.97;;;1.90;;
23142;SDS011;11740;51.168;4.112;2023-07-16T14:01:14;3.85;;;2.00;;
23142;SDS011;11740;51.168;4.112;2023-07-16T14:03:43;4.80;;;2.17;;
23142;SDS011;11740;51.168;4.112;2023-07-16T14:06:13;4.13;;;1.90;;
23142;SDS011;11740;51.168;4.112;2023-07-16T14:08:40;4.35;;;1.73;;
23142;SDS011;11740;51.168;4.112;2023-07-16T14:11:07;4.40;;;1.65;;
23142;SDS011;11740;51.168;4.112;2023-07-16T14:13:34;2.85;;;1.70;;
23142;SDS011;11740;51.168;4.112;2023-07-16T14:16:01;3.28;;;1.80;;
23142;SDS011;11740;51.168;4.112;2023-07-16T14:18:29;2.58;;;1.60;;
23142;SDS011;11740;51.168;4.112;2023-07-16T14:20:57;7.35;;;1.73;;
23142;SDS011;11740;51.168;4.112;2023-07-16T14:23:24;1.92;;;1.27;;
23142;SDS011;11740;51.168;4.112;2023-07-16T14:25:51;3.03;;;1.45;;
23142;SDS011;11740;51.168;4.112;2023-07-16T14:28:18;2.85;;;1.63;;
23142;SDS011;11740;51.168;4.112;2023-07-16T14:30:45;5.32;;;1.80;;
23142;SDS011;11740;51.168;4.112;2023-07-16T14:33:12;3.85;;;1.50;;
23142;SDS011;11740;51.168;4.112;2023-07-16T14:35:39;4.00;;;1.52;;
23142;SDS011;11740;51.168;4.112;2023-07-16T14:38:06;2.72;;;1.40;;
23142;SDS011;11740;51.168;4.112;2023-07-16T14:40:33;4.38;;;1.35;;
23142;SDS011;11740;51.168;4.112;2023-07-16T14:43:00;5.35;;;1.52;;
23142;SDS011;11740;51.168;4.112;2023-07-16T14:45:27;3.67;;;1.45;;
23142;SDS011;11740;51.168;4.112;2023-07-16T14:47:54;2.63;;;1.25;;
23142;SDS011;11740;51.168;4.112;2023-07-16T14:50:21;4.18;;;1.50;;
23142;SDS011;11740;51.168;4.112;2023-07-16T14:52:50;4.90;;;1.55;;
23142;SDS011;11740;51.168;4.112;2023-07-16T14:55:16;2.45;;;1.35;;
23142;SDS011;11740;51.168;4.112;2023-07-16T14:57:43;3.65;;;1.40;;
23142;SDS011;11740;51.168;4.112;2023-07-16T15:00:11;2.92;;;1.55;;